Terminal Aerodrome Forecast
Issued by NWS Tulsa, OK

Home | Current Version | Previous Version | Text Only | Print | Product List | Glossary On
Versions: 1 2 3 4 5 6 7 8 9 10 11 12 13 14 15 16 17
727
FTUS44 KTSA 191203 AAA
TAFTUL
TAF AMD
KTUL 191203Z 1912/2012 00000KT 4SM BR BKN012
      TEMPO 1912/1915 BKN007
     FM191500 VRB03KT 4SM BR OVC007
     FM191900 16011G17KT P6SM OVC015
     FM192300 15011KT P6SM SCT025
     FM200200 14011KT 4SM BR VCSH BKN020
     FM200600 15010KT 4SM BR VCTS OVC015CB
      TEMPO 2006/2010 2SM -TSRA OVC007CB=

USA.gov is the U.S. government's official web portal to all federal, state and local government web resources and services.